TAF MSLP
MSLP 270325Z 2706/2806 03010KT 9999 FEW030 SCT070 TX33/2718Z TN21/2711Z FM272000 21008KT 9999 SCT047 FM280100 05008KT 9999 FEW047=
METAR MSLP
MSLP 270850Z 04009KT CAVOK 26/15 Q1011 A2985 NOSIG=
MSLP 270750Z 03006KT CAVOK 25/15 Q1011 A2986 NOSIG=
MSLP 270650Z 04011KT CAVOK 26/15 Q1011 A2987 NOSIG=
MSLP 270550Z 04006KT CAVOK 25/15 Q1012 A2989 NOSIG=
MSLP 270450Z 04006KT CAVOK 26/15 Q1013 A2991 NOSIG=
WC MSLP
WS MSLP
WV MSLP